Current Weather

Palo Alto

Palo Alto, California (KPAO)

Report from: Tuesday, May 28, 2024 8:47 PM PDT
Current time: Wednesday, May 29, 2024 1:23 AM PDT

Nearby weather – Weather history – Daily summaries
Weather forecast

Temperature16.0°C (60.8°F)
Dew point8.0°C (46.4°F)
Winds 8 kts (4.1 m/s, 9.2 mph) North-Northwest (340°)
Visibility10 mi. (16.1 km)
Clouds Sky clear
Altimeter30.08 in.Hg (1019 mB)
Relative humidity59 %
Density altitude91 ft. (28 m)
Remarks Last observation of the day
Flight conditions Visual Meteorological Conditions
Raw dataKPAO 290347Z 34008KT 10SM SKC 16/08 A3008 RMK LAST
An error has occurred. This application may no longer respond until reloaded. Reload 🗙